createdAt,value
2022-12-01T00:01:15.019Z,100.00
2022-12-01T00:03:41.694Z,100.00
2022-12-01T00:06:15.479Z,100.00
2022-12-01T00:09:02.735Z,100.00
2022-12-01T00:11:29.353Z,100.00
2022-12-01T00:13:55.844Z,100.00
2022-12-01T00:16:22.542Z,100.00
2022-12-01T00:18:50.499Z,100.00
2022-12-01T00:21:19.252Z,100.00
2022-12-01T00:23:47.448Z,100.00
2022-12-01T00:26:15.155Z,100.00
2022-12-01T00:28:41.889Z,100.00
2022-12-01T00:31:12.291Z,100.00
2022-12-01T00:33:39.621Z,100.00
2022-12-01T00:36:06.882Z,100.00
2022-12-01T00:38:34.169Z,100.00
2022-12-01T00:41:00.609Z,100.00
2022-12-01T00:43:27.137Z,100.00
2022-12-01T00:45:53.589Z,100.00
2022-12-01T00:48:20.697Z,100.00
2022-12-01T00:50:47.632Z,100.00
2022-12-01T00:53:14.122Z,100.00
2022-12-01T00:55:40.658Z,100.00
2022-12-01T00:58:07.549Z,100.00
2022-12-01T01:00:34.466Z,100.00
2022-12-01T01:03:01.558Z,100.00
2022-12-01T01:05:27.967Z,100.00
2022-12-01T01:07:54.422Z,100.00
2022-12-01T01:10:20.973Z,100.00
2022-12-01T01:12:47.369Z,100.00
2022-12-01T01:15:13.848Z,100.00
2022-12-01T01:17:40.240Z,100.00
2022-12-01T01:20:07.643Z,100.00
2022-12-01T01:22:35.188Z,100.00
2022-12-01T01:25:01.572Z,100.00
2022-12-01T01:27:27.942Z,100.00
2022-12-01T01:29:54.302Z,100.00
2022-12-01T01:32:20.899Z,100.00
2022-12-01T01:34:47.271Z,100.00
2022-12-01T01:37:13.660Z,100.00
2022-12-01T01:39:40.819Z,100.00
2022-12-01T01:42:12.507Z,100.00
2022-12-01T01:45:37.777Z,100.00
2022-12-01T01:48:04.372Z,100.00
2022-12-01T01:50:31.003Z,100.00
2022-12-01T01:53:01.262Z,100.00
2022-12-01T01:55:29.822Z,100.00
2022-12-01T01:57:56.823Z,100.00
2022-12-01T02:00:23.308Z,100.00
2022-12-01T02:02:50.432Z,100.00
2022-12-01T02:05:24.743Z,100.00
2022-12-01T02:07:53.371Z,100.00
2022-12-01T02:10:23.584Z,100.00
2022-12-01T02:13:08.887Z,100.00
2022-12-01T02:16:07.467Z,100.00
2022-12-01T02:18:52.215Z,100.00
2022-12-01T02:21:27.749Z,100.00
2022-12-01T02:24:20.126Z,100.00
2022-12-01T02:27:07.056Z,100.00
2022-12-01T02:30:04.565Z,100.00
2022-12-01T02:32:50.995Z,100.00
2022-12-01T02:35:33.654Z,100.00
2022-12-01T02:38:26.187Z,100.00
2022-12-01T02:41:01.334Z,100.00
2022-12-01T02:43:33.226Z,100.00
2022-12-01T02:46:24.011Z,100.00
2022-12-01T02:48:53.940Z,100.00
2022-12-01T02:51:29.024Z,100.00
2022-12-01T02:53:57.976Z,100.00
2022-12-01T02:56:24.614Z,100.00
2022-12-01T02:58:51.121Z,100.00
2022-12-01T03:01:37.865Z,100.00
2022-12-01T03:04:32.521Z,100.00
2022-12-01T03:07:20.241Z,100.00
2022-12-01T03:10:01.775Z,100.00
2022-12-01T03:12:42.366Z,100.00
2022-12-01T03:15:24.044Z,100.00
2022-12-01T03:18:22.445Z,100.00
2022-12-01T03:21:20.931Z,100.00
2022-12-01T03:23:58.500Z,100.00
2022-12-01T03:26:29.080Z,100.00
2022-12-01T03:29:01.595Z,100.00
2022-12-01T03:31:34.701Z,100.00
2022-12-01T03:34:06.535Z,100.00
2022-12-01T03:36:39.642Z,100.00
2022-12-01T03:39:12.487Z,100.00
2022-12-01T03:41:43.664Z,100.00
2022-12-01T03:44:19.745Z,100.00
2022-12-01T03:46:57.043Z,100.00
2022-12-01T03:49:25.549Z,100.00
2022-12-01T03:52:15.645Z,100.00
2022-12-01T03:54:53.834Z,100.00
2022-12-01T03:57:27.153Z,100.00
2022-12-01T03:59:54.490Z,100.00
2022-12-01T04:02:21.335Z,100.00
2022-12-01T04:04:47.759Z,100.00
2022-12-01T04:07:14.740Z,100.00
2022-12-01T04:09:41.749Z,100.00
2022-12-01T04:12:29.942Z,100.00
2022-12-01T04:15:05.867Z,100.00
2022-12-01T04:17:32.334Z,100.00
2022-12-01T04:19:58.759Z,100.00
2022-12-01T04:22:25.840Z,100.00
2022-12-01T04:24:53.445Z,100.00
2022-12-01T04:27:20.367Z,100.00
2022-12-01T04:29:47.427Z,100.00
2022-12-01T04:32:14.557Z,100.00
2022-12-01T04:34:41.010Z,100.00
2022-12-01T04:37:07.754Z,100.00
2022-12-01T04:39:34.411Z,100.00
2022-12-01T04:42:00.825Z,100.00
2022-12-01T04:44:31.586Z,100.00
2022-12-01T04:47:01.154Z,100.00
2022-12-01T04:49:27.875Z,100.00
2022-12-01T04:51:54.336Z,100.00
2022-12-01T04:54:20.763Z,100.00
2022-12-01T04:56:47.141Z,100.00
2022-12-01T04:59:13.645Z,100.00
2022-12-01T05:01:40.524Z,100.00
2022-12-01T05:04:07.035Z,100.00
2022-12-01T05:06:33.539Z,100.00
2022-12-01T05:09:01.466Z,100.00
2022-12-01T05:11:29.832Z,100.00
2022-12-01T05:13:56.510Z,100.00
2022-12-01T05:16:26.031Z,100.00
2022-12-01T05:19:15.571Z,100.00
2022-12-01T05:21:43.452Z,100.00
2022-12-01T05:24:11.221Z,100.00
2022-12-01T05:26:38.443Z,100.00
2022-12-01T05:29:05.424Z,100.00
2022-12-01T05:31:32.138Z,100.00
2022-12-01T05:33:58.652Z,100.00
2022-12-01T05:36:25.048Z,100.00
2022-12-01T05:38:51.751Z,100.00
2022-12-01T05:41:18.529Z,100.00
2022-12-01T05:43:44.904Z,100.00
2022-12-01T05:46:11.612Z,100.00
2022-12-01T05:48:38.091Z,100.00
2022-12-01T05:51:09.941Z,100.00
2022-12-01T05:53:36.346Z,100.00
2022-12-01T05:56:02.797Z,100.00
2022-12-01T05:58:29.356Z,100.00
2022-12-01T06:00:55.740Z,100.00
2022-12-01T06:03:22.511Z,100.00
2022-12-01T06:05:49.073Z,100.00
2022-12-01T06:08:15.483Z,100.00
2022-12-01T06:10:41.894Z,100.00
2022-12-01T06:13:08.475Z,100.00
2022-12-01T06:15:34.881Z,100.00
2022-12-01T06:18:01.867Z,100.00
2022-12-01T06:20:28.373Z,100.00
2022-12-01T06:22:54.868Z,100.00
2022-12-01T06:25:21.296Z,100.00
2022-12-01T06:27:47.662Z,100.00
2022-12-01T06:30:14.253Z,100.00
2022-12-01T06:32:40.812Z,100.00
2022-12-01T06:35:07.781Z,100.00
2022-12-01T06:37:34.295Z,100.00
2022-12-01T06:40:00.678Z,100.00
2022-12-01T06:42:30.499Z,100.00
2022-12-01T06:44:57.081Z,100.00
2022-12-01T06:47:23.464Z,100.00
2022-12-01T06:49:49.975Z,100.00
2022-12-01T06:52:16.486Z,100.00
2022-12-01T06:54:43.140Z,100.00
2022-12-01T06:57:09.846Z,100.00
2022-12-01T06:59:36.490Z,100.00
2022-12-01T07:02:03.538Z,100.00
2022-12-01T07:04:30.481Z,100.00
2022-12-01T07:06:56.863Z,100.00
2022-12-01T07:09:23.484Z,100.00
2022-12-01T07:11:49.855Z,100.00
2022-12-01T07:14:22.394Z,100.00
2022-12-01T07:16:48.858Z,100.00
2022-12-01T07:19:15.311Z,100.00
2022-12-01T07:21:41.680Z,100.00
2022-12-01T07:24:08.300Z,100.00
2022-12-01T07:26:34.778Z,100.00
2022-12-01T07:29:01.142Z,100.00
2022-12-01T07:31:27.616Z,100.00
2022-12-01T07:33:54.079Z,100.00
2022-12-01T07:36:20.786Z,100.00
2022-12-01T07:38:47.805Z,100.00
2022-12-01T07:41:19.050Z,100.00
2022-12-01T07:43:46.189Z,100.00
2022-12-01T07:46:22.780Z,100.00
2022-12-01T07:48:50.761Z,100.00
2022-12-01T07:51:17.611Z,100.00
2022-12-01T07:53:46.086Z,100.00
2022-12-01T07:56:13.306Z,100.00
2022-12-01T07:58:40.082Z,100.00
2022-12-01T08:01:15.150Z,100.00
2022-12-01T08:03:42.329Z,100.00
2022-12-01T08:06:09.684Z,100.00
2022-12-01T08:08:38.277Z,100.00
2022-12-01T08:11:07.617Z,100.00
2022-12-01T08:13:34.116Z,100.00
2022-12-01T08:16:07.082Z,100.00
2022-12-01T08:18:37.957Z,100.00
2022-12-01T08:21:06.055Z,100.00
2022-12-01T08:23:32.726Z,100.00
2022-12-01T08:26:08.146Z,100.00
2022-12-01T08:28:37.443Z,100.00
2022-12-01T08:31:19.795Z,100.00
2022-12-01T08:33:48.414Z,100.00
2022-12-01T08:36:15.555Z,100.00
2022-12-01T08:38:46.038Z,100.00
2022-12-01T08:41:13.309Z,100.00
2022-12-01T08:43:57.160Z,100.00
2022-12-01T08:46:26.851Z,100.00
2022-12-01T08:48:55.025Z,100.00
2022-12-01T08:51:21.600Z,100.00
2022-12-01T08:53:49.702Z,100.00
2022-12-01T08:56:27.648Z,100.00
2022-12-01T08:58:54.642Z,100.00
2022-12-01T09:01:21.520Z,100.00
2022-12-01T09:03:48.196Z,100.00
2022-12-01T09:06:20.607Z,100.00
2022-12-01T09:08:47.399Z,100.00
2022-12-01T09:11:17.505Z,100.00
2022-12-01T09:13:48.601Z,100.00
2022-12-01T09:16:18.691Z,100.00
2022-12-01T09:18:46.657Z,100.00
2022-12-01T09:21:16.405Z,100.00
2022-12-01T09:23:42.939Z,100.00
2022-12-01T09:26:13.560Z,100.00
2022-12-01T09:28:40.668Z,100.00
2022-12-01T09:31:09.877Z,100.00
2022-12-01T09:33:37.477Z,100.00
2022-12-01T09:36:06.270Z,100.00
2022-12-01T09:38:34.255Z,100.00
2022-12-01T09:41:11.545Z,100.00
2022-12-01T09:43:46.270Z,100.00
2022-12-01T09:46:20.626Z,100.00
2022-12-01T09:48:49.432Z,100.00
2022-12-01T09:51:19.115Z,100.00
2022-12-01T09:53:48.275Z,100.00
2022-12-01T09:56:21.573Z,100.00
2022-12-01T09:58:52.290Z,100.00
2022-12-01T10:01:25.864Z,100.00
2022-12-01T10:03:57.808Z,100.00
2022-12-01T10:06:38.547Z,100.00
2022-12-01T10:09:16.709Z,100.00
2022-12-01T10:11:45.128Z,100.00
2022-12-01T10:14:20.804Z,100.00
2022-12-01T10:17:13.305Z,100.00
2022-12-01T10:19:50.537Z,100.00
2022-12-01T10:22:39.628Z,100.00
2022-12-01T10:25:27.615Z,100.00
2022-12-01T10:28:21.834Z,100.00
2022-12-01T10:30:50.574Z,100.00
2022-12-01T10:33:24.216Z,100.00
2022-12-01T10:35:51.051Z,100.00
2022-12-01T10:38:32.751Z,100.00
2022-12-01T10:41:01.078Z,100.00
2022-12-01T10:43:57.703Z,100.00
2022-12-01T10:46:26.177Z,100.00
2022-12-01T10:48:58.085Z,100.00
2022-12-01T10:51:26.142Z,100.00
2022-12-01T10:54:06.348Z,100.00
2022-12-01T10:56:33.706Z,100.00
2022-12-01T10:59:16.708Z,100.00
2022-12-01T11:01:48.095Z,100.00
2022-12-01T11:04:35.516Z,100.00
2022-12-01T11:07:03.708Z,100.00
2022-12-01T11:09:31.224Z,100.00
2022-12-01T11:12:03.166Z,100.00
2022-12-01T11:14:41.651Z,100.00
2022-12-01T11:17:16.858Z,100.00
2022-12-01T11:19:43.561Z,100.00
2022-12-01T11:22:30.252Z,100.00
2022-12-01T11:25:00.400Z,100.00
2022-12-01T11:27:34.777Z,100.00
2022-12-01T11:30:07.833Z,100.00
2022-12-01T11:32:38.799Z,100.00
2022-12-01T11:35:17.605Z,100.00
2022-12-01T11:38:27.307Z,100.00
2022-12-01T11:40:48.713Z,100.00
2022-12-01T11:43:29.122Z,100.00
2022-12-01T11:45:58.185Z,100.00
2022-12-01T11:48:26.230Z,100.00
2022-12-01T11:51:04.762Z,100.00
2022-12-01T11:53:36.689Z,100.00
2022-12-01T11:56:17.395Z,100.00
2022-12-01T11:58:46.224Z,100.00
2022-12-01T12:01:48.196Z,100.00
2022-12-01T12:04:33.002Z,100.00
2022-12-01T12:07:25.959Z,100.00
2022-12-01T12:10:07.324Z,100.00
2022-12-01T12:13:10.908Z,100.00
2022-12-01T12:16:01.805Z,100.00
2022-12-01T12:19:06.434Z,100.00
2022-12-01T12:22:03.422Z,100.00
2022-12-01T12:24:36.495Z,100.00
2022-12-01T12:27:13.576Z,100.00
2022-12-01T12:30:00.280Z,100.00
2022-12-01T12:32:43.336Z,100.00
2022-12-01T12:35:36.637Z,100.00
2022-12-01T12:38:40.578Z,100.00
2022-12-01T12:41:18.617Z,100.00
2022-12-01T12:43:51.589Z,100.00
2022-12-01T12:46:31.981Z,100.00
2022-12-01T12:49:36.084Z,100.00
2022-12-01T12:52:09.988Z,100.00
2022-12-01T12:54:44.130Z,100.00
2022-12-01T12:57:38.059Z,100.00
2022-12-01T13:00:13.809Z,100.00
2022-12-01T13:02:42.339Z,100.00
2022-12-01T13:05:36.027Z,100.00
2022-12-01T13:08:17.865Z,100.00
2022-12-01T13:11:03.288Z,100.00
2022-12-01T13:13:42.026Z,100.00
2022-12-01T13:16:35.409Z,100.00
2022-12-01T13:19:16.353Z,100.00
2022-12-01T13:21:45.245Z,100.00
2022-12-01T13:24:23.059Z,100.00
2022-12-01T13:27:06.533Z,100.00
2022-12-01T13:29:43.865Z,100.00
2022-12-01T13:32:40.296Z,99.71
2022-12-01T13:35:30.983Z,99.40
2022-12-01T13:38:14.132Z,99.67
2022-12-01T13:40:40.561Z,99.27
2022-12-01T13:43:18.279Z,98.93
2022-12-01T13:45:45.068Z,98.73
2022-12-01T13:48:28.631Z,98.39
2022-12-01T13:50:56.814Z,98.06
2022-12-01T13:53:28.367Z,98.39
2022-12-01T13:56:03.978Z,98.14
2022-12-01T13:58:33.443Z,97.45
2022-12-01T14:01:22.075Z,97.43
2022-12-01T14:04:10.766Z,97.64
2022-12-01T14:06:49.053Z,97.83
2022-12-01T14:09:21.505Z,97.18
2022-12-01T14:12:00.825Z,97.72
2022-12-01T14:14:32.769Z,97.56
2022-12-01T14:17:02.542Z,97.29
2022-12-01T14:19:38.100Z,97.58
2022-12-01T14:22:06.307Z,97.47
2022-12-01T14:24:43.442Z,97.47
2022-12-01T14:27:11.815Z,97.53
2022-12-01T14:29:42.934Z,97.58
2022-12-01T14:32:09.238Z,97.97
2022-12-01T14:34:37.750Z,97.31
2022-12-01T14:37:16.561Z,97.17
2022-12-01T14:39:49.654Z,96.73
2022-12-01T14:42:57.957Z,96.57
2022-12-01T14:45:30.641Z,96.71
2022-12-01T14:48:02.028Z,96.40
2022-12-01T14:50:34.927Z,96.55
2022-12-01T14:53:32.600Z,96.82
2022-12-01T14:56:08.212Z,97.18
2022-12-01T14:58:34.678Z,96.90
2022-12-01T15:01:09.947Z,97.31
2022-12-01T15:03:42.291Z,97.79
2022-12-01T15:06:10.265Z,97.95
2022-12-01T15:08:49.130Z,97.85
2022-12-01T15:11:26.025Z,97.84
2022-12-01T15:13:56.929Z,98.42
2022-12-01T15:16:25.921Z,98.62
2022-12-01T15:18:52.786Z,98.66
2022-12-01T15:21:23.726Z,98.67
2022-12-01T15:23:52.889Z,98.08
2022-12-01T15:26:20.806Z,98.42
2022-12-01T15:28:47.841Z,98.82
2022-12-01T15:31:14.449Z,98.59
2022-12-01T15:33:50.387Z,98.55
2022-12-01T15:36:17.433Z,98.07
2022-12-01T15:38:47.244Z,98.49
2022-12-01T15:41:29.906Z,98.86
2022-12-01T15:44:00.592Z,99.05
2022-12-01T15:46:29.714Z,98.95
2022-12-01T15:49:18.037Z,98.50
2022-12-01T15:51:45.276Z,99.00
2022-12-01T15:54:22.721Z,98.82
2022-12-01T15:56:58.543Z,98.68
2022-12-01T15:59:36.740Z,99.34
2022-12-01T16:02:29.518Z,98.88
2022-12-01T16:05:14.430Z,98.98
2022-12-01T16:10:34.028Z,97.87
2022-12-01T16:13:37.159Z,97.93
2022-12-01T16:16:34.738Z,97.66
2022-12-01T16:19:10.060Z,97.75
2022-12-01T16:21:46.533Z,97.63
2022-12-01T16:24:20.906Z,97.68
2022-12-01T16:26:49.088Z,97.68
2022-12-01T16:29:22.310Z,97.13
2022-12-01T16:32:19.972Z,97.03
2022-12-01T16:34:52.287Z,96.93
2022-12-01T16:37:19.586Z,96.89
2022-12-01T16:39:46.432Z,96.75
2022-12-01T16:42:15.403Z,96.95
2022-12-01T16:44:44.586Z,96.71
2022-12-01T16:47:25.169Z,96.34
2022-12-01T16:49:52.357Z,95.10
2022-12-01T16:52:43.701Z,94.93
2022-12-01T16:55:36.353Z,94.91
2022-12-01T16:58:02.781Z,94.59
2022-12-01T17:00:29.652Z,94.74
2022-12-01T17:02:57.148Z,94.52
2022-12-01T17:05:23.712Z,94.92
2022-12-01T17:07:50.580Z,94.50
2022-12-01T17:10:20.567Z,94.96
2022-12-01T17:12:47.027Z,94.99
2022-12-01T17:15:14.970Z,95.16
2022-12-01T17:17:41.399Z,95.20
2022-12-01T17:20:08.788Z,95.65
2022-12-01T17:22:35.360Z,95.77
2022-12-01T17:25:02.430Z,96.33
2022-12-01T17:27:31.330Z,95.84
2022-12-01T17:30:01.578Z,96.27
2022-12-01T17:32:28.180Z,96.43
2022-12-01T17:34:54.869Z,96.80
2022-12-01T17:37:21.640Z,97.01
2022-12-01T17:39:49.210Z,96.55
2022-12-01T17:42:16.047Z,97.20
2022-12-01T17:44:42.704Z,97.10
2022-12-01T17:47:09.070Z,96.79
2022-12-01T17:49:36.572Z,96.40
2022-12-01T17:52:04.863Z,96.97
2022-12-01T17:54:31.589Z,97.06
2022-12-01T17:56:58.462Z,97.07
2022-12-01T17:59:25.018Z,96.65
2022-12-01T18:01:51.496Z,96.77
2022-12-01T18:04:18.006Z,96.34
2022-12-01T18:06:46.890Z,96.23
2022-12-01T18:09:17.245Z,96.14
2022-12-01T18:11:43.675Z,96.07
2022-12-01T18:14:10.134Z,96.37
2022-12-01T18:16:36.572Z,95.31
2022-12-01T18:19:03.456Z,95.62
2022-12-01T18:21:30.193Z,95.06
2022-12-01T18:24:02.783Z,95.16
2022-12-01T18:26:31.526Z,95.27
2022-12-01T18:29:06.891Z,95.82
2022-12-01T18:31:33.995Z,95.64
2022-12-01T18:34:03.307Z,95.86
2022-12-01T18:36:31.823Z,95.84
2022-12-01T18:39:00.004Z,96.29
2022-12-01T18:41:26.729Z,95.84
2022-12-01T18:43:53.554Z,95.95
2022-12-01T18:46:21.302Z,96.56
2022-12-01T18:48:53.526Z,96.05
2022-12-01T18:51:20.915Z,95.81
2022-12-01T18:53:47.739Z,95.73
2022-12-01T18:56:15.405Z,95.29
2022-12-01T18:58:42.752Z,95.77
2022-12-01T19:01:24.601Z,95.71
2022-12-01T19:03:51.419Z,96.02
2022-12-01T19:06:18.227Z,95.84
2022-12-01T19:08:46.280Z,96.34
2022-12-01T19:11:13.538Z,96.13
2022-12-01T19:13:40.115Z,96.35
2022-12-01T19:16:09.032Z,95.56
2022-12-01T19:18:36.834Z,94.77
2022-12-01T19:21:08.548Z,94.69
2022-12-01T19:23:35.373Z,93.97
2022-12-01T19:26:06.648Z,92.73
2022-12-01T19:28:34.571Z,92.21
2022-12-01T19:31:10.997Z,92.13
2022-12-01T19:33:38.081Z,91.40
2022-12-01T19:36:07.132Z,90.52
2022-12-01T19:38:33.631Z,91.02
2022-12-01T19:41:00.446Z,90.94
2022-12-01T19:43:27.319Z,91.00
2022-12-01T19:45:53.769Z,91.00
2022-12-01T19:48:20.200Z,90.52
2022-12-01T19:50:46.973Z,90.26
2022-12-01T19:53:13.391Z,89.29
2022-12-01T19:55:39.750Z,89.26
2022-12-01T19:58:06.188Z,88.82
2022-12-01T20:00:32.630Z,88.10
2022-12-01T20:03:00.056Z,88.51
2022-12-01T20:05:26.493Z,88.67
2022-12-01T20:07:53.018Z,88.49
2022-12-01T20:10:20.272Z,89.03
2022-12-01T20:12:47.574Z,88.09
2022-12-01T20:15:14.753Z,88.07
2022-12-01T20:17:41.285Z,88.58
2022-12-01T20:20:08.464Z,89.26
2022-12-01T20:22:35.643Z,88.75
2022-12-01T20:25:02.458Z,88.38
2022-12-01T20:27:29.042Z,87.90
2022-12-01T20:29:55.602Z,87.34
2022-12-01T20:32:23.853Z,87.67
2022-12-01T20:34:50.744Z,87.59
2022-12-01T20:37:17.520Z,88.09
2022-12-01T20:39:44.007Z,87.78
2022-12-01T20:42:10.818Z,86.92
2022-12-01T20:44:37.904Z,87.21
2022-12-01T20:47:04.458Z,87.62
2022-12-01T20:49:30.972Z,87.20
2022-12-01T20:51:57.483Z,87.44
2022-12-01T20:54:28.902Z,86.63
2022-12-01T20:56:56.662Z,86.89
2022-12-01T20:59:23.127Z,86.47
2022-12-01T21:01:49.578Z,86.04
2022-12-01T21:04:16.047Z,85.97
2022-12-01T21:06:42.869Z,86.59
2022-12-01T21:09:09.447Z,86.88
2022-12-01T21:12:06.228Z,86.88
2022-12-01T21:14:47.221Z,87.21
2022-12-01T21:17:30.436Z,87.35
2022-12-01T21:20:11.581Z,87.45
2022-12-01T21:22:38.250Z,86.56
2022-12-01T21:25:18.828Z,85.91
2022-12-01T21:27:47.152Z,86.34
2022-12-01T21:30:19.745Z,86.55
2022-12-01T21:32:47.354Z,86.10
2022-12-01T21:35:23.439Z,86.09
2022-12-01T21:37:53.560Z,86.35
2022-12-01T21:40:24.608Z,85.83
2022-12-01T21:42:51.454Z,85.59
2022-12-01T21:45:29.236Z,85.92
2022-12-01T21:47:59.936Z,85.72
2022-12-01T21:50:27.250Z,86.94
2022-12-01T21:52:53.859Z,85.78
2022-12-01T21:55:20.163Z,85.31
2022-12-01T21:57:48.540Z,85.57
2022-12-01T22:00:28.677Z,86.08
2022-12-01T22:03:16.550Z,86.09
2022-12-01T22:06:01.051Z,85.79
2022-12-01T22:08:35.889Z,86.16
2022-12-01T22:11:02.267Z,85.68
2022-12-01T22:13:44.446Z,85.09
2022-12-01T22:16:32.534Z,85.74
2022-12-01T22:19:26.637Z,87.21
2022-12-01T22:22:00.602Z,87.25
2022-12-01T22:24:45.749Z,87.38
2022-12-01T22:27:18.070Z,87.70
2022-12-01T22:29:46.389Z,87.79
2022-12-01T22:32:12.692Z,87.79
2022-12-01T22:34:40.858Z,87.81
2022-12-01T22:37:17.343Z,87.02
2022-12-01T22:39:46.858Z,86.57
2022-12-01T22:42:21.007Z,86.79
2022-12-01T22:44:47.793Z,87.21
2022-12-01T22:47:14.543Z,86.49
2022-12-01T22:49:42.194Z,87.03
2022-12-01T22:52:27.360Z,87.13
2022-12-01T22:54:54.365Z,87.08
2022-12-01T22:57:24.560Z,87.43
2022-12-01T22:59:51.825Z,87.35
2022-12-01T23:02:31.705Z,86.82
2022-12-01T23:05:27.652Z,86.14
2022-12-01T23:07:55.166Z,86.12
2022-12-01T23:10:23.154Z,86.77
2022-12-01T23:12:51.901Z,86.97
2022-12-01T23:15:34.073Z,87.27
2022-12-01T23:18:22.286Z,86.92
2022-12-01T23:20:56.821Z,87.45
2022-12-01T23:23:29.417Z,87.44
2022-12-01T23:25:56.639Z,87.27
2022-12-01T23:28:24.139Z,87.61
2022-12-01T23:30:56.779Z,87.70
2022-12-01T23:33:29.623Z,87.76
2022-12-01T23:35:59.952Z,87.66
2022-12-01T23:38:31.689Z,87.97
2022-12-01T23:41:02.252Z,88.10
2022-12-01T23:43:39.014Z,87.97
2022-12-01T23:46:10.317Z,87.79
2022-12-01T23:48:43.852Z,87.80
2022-12-01T23:51:17.768Z,88.44
2022-12-01T23:53:44.585Z,88.42
2022-12-01T23:56:18.585Z,88.33
2022-12-01T23:58:45.196Z,88.96
